createdAt,value
2018-11-06T13:15:54.874Z,6.40
2018-11-06T13:17:02.843Z,7.30
2018-11-06T13:18:02.730Z,7.90
2018-11-06T13:19:03.046Z,7.20
2018-11-06T13:20:03.036Z,8.30
2018-11-06T13:21:03.288Z,7.70
2018-11-06T13:22:02.734Z,7.60
2018-11-06T13:23:02.693Z,8.20
2018-11-06T13:24:02.930Z,7.50
2018-11-06T13:25:02.757Z,8.10
2018-11-06T13:26:02.698Z,7.60
2018-11-06T13:27:02.589Z,7.20
2018-11-06T13:28:02.587Z,7.60
2018-11-06T13:29:02.552Z,7.00
2018-11-06T13:30:02.538Z,7.20
2018-11-06T13:31:02.525Z,7.20
2018-11-06T13:32:02.505Z,7.50
2018-11-06T13:33:02.489Z,7.30
2018-11-06T13:34:02.472Z,7.10
2018-11-06T13:35:02.461Z,7.70
2018-11-06T13:36:02.439Z,6.80
2018-11-06T13:37:02.425Z,7.30
2018-11-06T13:38:02.406Z,7.20
2018-11-06T13:39:02.389Z,7.30
2018-11-06T13:40:02.375Z,7.00
2018-11-06T13:41:02.382Z,7.30
2018-11-06T13:42:02.392Z,7.10
2018-11-06T13:43:02.652Z,6.80
2018-11-06T13:44:02.496Z,7.10
2018-11-06T13:45:02.545Z,7.30
2018-11-06T13:46:02.273Z,8.00
2018-11-06T13:47:02.251Z,7.90
2018-11-06T13:48:02.235Z,8.90
2018-11-06T13:49:02.216Z,8.80
2018-11-06T13:50:02.198Z,8.20
2018-11-06T13:51:02.184Z,8.30
2018-11-06T13:52:02.227Z,7.50
2018-11-06T13:53:02.153Z,7.70
2018-11-06T13:54:02.154Z,7.50
2018-11-06T13:55:02.155Z,7.30
2018-11-06T13:56:02.094Z,7.30
2018-11-06T13:57:02.081Z,7.60
2018-11-06T13:58:02.090Z,7.80
2018-11-06T13:59:02.038Z,7.30
2018-11-06T14:00:02.019Z,7.30
2018-11-06T14:01:02.031Z,7.20
2018-11-06T14:02:01.987Z,7.40
2018-11-06T14:03:01.965Z,7.10
2018-11-06T14:04:01.946Z,7.20
2018-11-06T14:05:01.935Z,7.10
2018-11-06T14:06:01.911Z,7.10
2018-11-06T14:07:01.904Z,6.90
2018-11-06T14:08:01.916Z,7.40
2018-11-06T14:09:01.859Z,6.80
2018-11-06T14:10:01.964Z,6.90
2018-11-06T14:11:01.828Z,7.30
2018-11-06T14:12:01.824Z,7.00
2018-11-06T14:13:01.801Z,6.90
2018-11-06T14:14:01.799Z,7.00
2018-11-06T14:15:01.750Z,7.20
2018-11-06T14:16:01.744Z,6.90
2018-11-06T14:17:01.736Z,6.50
2018-11-06T14:18:01.700Z,7.00
2018-11-06T14:19:01.687Z,7.20
2018-11-06T14:20:01.658Z,6.70
2018-11-06T14:21:01.721Z,7.00
2018-11-06T14:22:01.622Z,6.90
2018-11-06T14:23:01.607Z,7.20
2018-11-06T14:24:01.587Z,6.20
2018-11-06T14:25:01.583Z,7.00
2018-11-06T14:26:01.560Z,7.10
2018-11-06T14:27:01.610Z,7.30
2018-11-06T14:28:01.518Z,6.70
2018-11-06T14:29:01.547Z,6.80
2018-11-06T14:30:01.488Z,7.60
2018-11-06T14:31:01.464Z,7.00
2018-11-06T14:32:01.448Z,6.40
2018-11-06T14:33:01.430Z,6.60
2018-11-06T14:34:01.412Z,7.00
2018-11-06T14:35:01.392Z,6.80
2018-11-06T14:36:01.480Z,6.60
2018-11-06T14:37:01.359Z,6.90
2018-11-06T14:38:01.338Z,6.40
2018-11-06T14:39:01.321Z,6.80
2018-11-06T14:40:01.305Z,6.80
2018-11-06T14:41:01.286Z,7.10
2018-11-06T14:42:01.318Z,6.60
2018-11-06T14:43:01.249Z,7.00
2018-11-06T14:44:01.232Z,6.80
2018-11-06T14:45:01.213Z,6.60
2018-11-06T14:46:01.195Z,6.50
2018-11-06T14:47:01.179Z,6.90
2018-11-06T14:48:01.299Z,7.20
2018-11-06T14:49:01.322Z,6.90
2018-11-06T14:50:01.121Z,6.80
2018-11-06T14:51:01.103Z,7.30
2018-11-06T14:52:01.103Z,7.50
2018-11-06T14:53:01.067Z,7.00
2018-11-06T14:54:01.050Z,7.50
2018-11-06T14:55:01.030Z,7.80
2018-11-06T14:56:01.106Z,7.90
2018-11-06T14:57:00.999Z,8.00
2018-11-06T14:58:00.976Z,7.10
2018-11-06T14:59:00.958Z,7.30
2018-11-06T15:00:00.941Z,7.50
2018-11-06T15:01:00.922Z,8.30
2018-11-06T15:02:00.903Z,7.70
2018-11-06T15:03:00.886Z,7.40
2018-11-06T15:04:00.869Z,7.90
2018-11-06T15:05:00.849Z,7.80
2018-11-06T15:06:00.828Z,7.10
2018-11-06T15:07:00.811Z,7.10
2018-11-06T15:08:00.795Z,7.50
2018-11-06T15:09:00.772Z,7.40
2018-11-06T15:10:00.756Z,7.60
2018-11-06T15:11:00.739Z,7.30
2018-11-06T15:12:00.720Z,7.10
2018-11-06T15:13:00.730Z,7.10
2018-11-06T15:14:00.681Z,7.70
2018-11-06T15:15:00.665Z,7.10
2018-11-06T15:16:00.645Z,7.30
2018-11-06T15:17:00.625Z,7.10
2018-11-06T15:18:00.606Z,7.00
2018-11-06T15:19:00.590Z,7.30
2018-11-06T15:20:00.570Z,6.60
2018-11-06T15:21:00.642Z,7.30
2018-11-06T15:22:00.532Z,7.10
2018-11-06T15:23:00.515Z,7.00
2018-11-06T15:24:00.496Z,7.30
2018-11-06T15:25:00.475Z,7.30
2018-11-06T15:26:00.459Z,6.90
2018-11-06T15:27:00.438Z,7.00
2018-11-06T15:28:00.422Z,6.90
2018-11-06T15:29:00.407Z,6.70
2018-11-06T15:30:00.385Z,6.60
2018-11-06T15:31:00.366Z,6.60
2018-11-06T15:32:00.406Z,6.90
2018-11-06T15:33:00.328Z,7.00
2018-11-06T15:34:00.309Z,6.70
2018-11-06T15:35:00.290Z,6.80
2018-11-06T15:36:00.273Z,7.20
2018-11-06T15:37:00.256Z,7.10
2018-11-06T15:38:00.236Z,7.10
2018-11-06T15:39:00.215Z,7.40
2018-11-06T15:40:00.198Z,6.60
2018-11-06T15:41:00.342Z,6.60
2018-11-06T15:42:00.350Z,7.10
2018-11-06T15:43:00.141Z,6.90
2018-11-06T15:44:00.121Z,6.90
2018-11-06T15:45:00.104Z,7.00
2018-11-06T15:46:00.084Z,6.90
2018-11-06T15:47:00.064Z,7.20
2018-11-06T15:48:00.045Z,7.20
2018-11-06T15:49:00.087Z,7.30
2018-11-06T15:50:00.010Z,6.90
2018-11-06T15:50:59.989Z,6.80
2018-11-06T15:51:59.976Z,7.00
2018-11-06T15:52:59.958Z,7.20
2018-11-06T15:53:59.934Z,7.20
2018-11-06T15:54:59.918Z,6.90
2018-11-06T15:55:59.896Z,6.90
2018-11-06T15:56:59.877Z,6.80
2018-11-06T15:57:59.855Z,7.20
2018-11-06T15:58:59.839Z,6.90
2018-11-06T15:59:59.821Z,7.40
2018-11-06T16:00:59.849Z,7.10
2018-11-06T16:01:59.781Z,6.90
2018-11-06T16:02:59.762Z,7.10
2018-11-06T16:03:59.745Z,7.30
2018-11-06T16:04:59.726Z,7.40
2018-11-06T16:05:59.705Z,6.80
2018-11-06T16:06:59.748Z,7.00
2018-11-06T16:07:59.697Z,7.10
2018-11-06T16:08:59.650Z,7.00
2018-11-06T16:09:59.629Z,7.40
2018-11-06T16:10:59.611Z,6.90
2018-11-06T16:11:59.612Z,6.80
2018-11-06T16:12:59.572Z,7.30
2018-11-06T16:13:59.560Z,7.00
2018-11-06T16:14:59.540Z,7.00
2018-11-06T16:15:59.516Z,7.10
2018-11-06T16:16:59.494Z,7.40
2018-11-06T16:17:59.480Z,7.10
2018-11-06T16:18:59.461Z,6.90
2018-11-06T16:19:59.440Z,6.90
2018-11-06T16:20:59.537Z,6.80
2018-11-06T16:21:59.402Z,7.00
2018-11-06T16:22:59.381Z,7.00
2018-11-06T16:23:59.420Z,7.30
2018-11-06T16:24:59.343Z,7.40
2018-11-06T16:25:59.326Z,7.70
2018-11-06T16:26:59.308Z,7.10
2018-11-06T16:27:59.290Z,7.40
2018-11-06T16:28:59.267Z,7.40
2018-11-06T16:29:59.247Z,7.90
2018-11-06T16:30:59.230Z,6.90
2018-11-06T16:31:59.211Z,7.50
2018-11-06T16:32:59.192Z,7.20
2018-11-06T16:33:59.169Z,7.50
2018-11-06T16:34:59.152Z,7.70
2018-11-06T16:35:59.144Z,7.10
2018-11-06T16:36:59.112Z,7.30
2018-11-06T16:37:59.100Z,7.20
2018-11-06T16:38:59.076Z,8.00
2018-11-06T16:39:59.065Z,7.40
2018-11-06T16:40:59.041Z,7.60
2018-11-06T16:41:59.022Z,7.40
2018-11-06T16:42:59.000Z,7.50
2018-11-06T16:43:58.979Z,7.90
2018-11-06T16:44:58.961Z,16.30
2018-11-06T16:45:58.940Z,9.80
2018-11-06T16:46:58.922Z,8.40
2018-11-06T16:47:58.905Z,8.20
2018-11-06T16:48:58.885Z,9.00
2018-11-06T16:49:58.878Z,9.20
2018-11-06T16:50:58.857Z,9.40
2018-11-06T16:51:58.826Z,9.10
2018-11-06T16:52:58.819Z,8.30
2018-11-06T16:53:58.789Z,8.10
2018-11-06T16:54:58.774Z,8.20
2018-11-06T16:55:58.752Z,8.10
2018-11-06T16:56:58.782Z,8.10
2018-11-06T16:57:58.710Z,8.10
2018-11-06T16:58:58.690Z,8.20
2018-11-06T16:59:58.780Z,9.30
2018-11-06T17:00:58.873Z,8.20
2018-11-06T17:01:58.644Z,8.00
2018-11-06T17:02:58.615Z,8.10
2018-11-06T17:03:58.609Z,8.40
2018-11-06T17:04:58.579Z,7.70
2018-11-06T17:05:58.556Z,8.40
2018-11-06T17:06:58.540Z,8.20
2018-11-06T17:07:58.663Z,8.00
2018-11-06T17:08:58.638Z,8.00
2018-11-06T17:09:58.619Z,8.30
2018-11-06T17:10:58.599Z,7.80
2018-11-06T17:11:58.581Z,8.40
2018-11-06T17:12:58.564Z,8.70
2018-11-06T17:13:58.545Z,7.80
2018-11-06T17:14:58.520Z,8.30
2018-11-06T17:15:58.507Z,8.60
2018-11-06T17:16:58.491Z,8.90
2018-11-06T17:17:58.468Z,8.60
2018-11-06T17:18:58.445Z,9.00
2018-11-06T17:19:58.425Z,8.60
2018-11-06T17:20:58.406Z,7.90
2018-11-06T17:21:58.387Z,8.20
2018-11-06T17:22:58.365Z,8.50
2018-11-06T17:23:58.581Z,8.60
2018-11-06T17:24:58.359Z,7.70
2018-11-06T17:25:58.310Z,8.30
2018-11-06T17:26:58.292Z,8.50
2018-11-06T17:27:58.317Z,8.70
2018-11-06T17:28:58.252Z,7.80
2018-11-06T17:29:58.233Z,8.50
2018-11-06T17:30:58.211Z,8.80
2018-11-06T17:31:58.194Z,8.60
2018-11-06T17:32:58.175Z,8.70
2018-11-06T17:33:58.156Z,8.80
2018-11-06T17:34:58.135Z,8.80
2018-11-06T17:35:58.119Z,7.70
2018-11-06T17:36:58.096Z,8.40
2018-11-06T17:37:58.083Z,7.90
2018-11-06T17:38:58.061Z,8.70
2018-11-06T17:39:58.046Z,8.50
2018-11-06T17:40:58.023Z,8.80
2018-11-06T17:41:58.082Z,8.50
2018-11-06T17:42:57.985Z,8.10
2018-11-06T17:43:57.960Z,9.00
2018-11-06T17:44:57.945Z,8.60
2018-11-06T17:45:58.022Z,8.80
2018-11-06T17:46:57.904Z,8.50
2018-11-06T17:47:57.887Z,9.20
2018-11-06T17:48:57.865Z,8.90
2018-11-06T17:49:57.844Z,8.60
2018-11-06T17:50:57.826Z,8.90
2018-11-06T17:51:57.809Z,8.30
2018-11-06T17:52:57.786Z,8.40
2018-11-06T17:53:57.767Z,9.20
2018-11-06T17:54:57.755Z,8.90
2018-11-06T17:55:57.735Z,9.40
2018-11-06T17:56:57.714Z,8.80
2018-11-06T17:57:57.762Z,8.80
2018-11-06T17:58:57.670Z,8.80
2018-11-06T17:59:57.651Z,8.50
2018-11-06T18:00:57.648Z,9.20
2018-11-06T18:01:57.614Z,8.60
2018-11-06T18:02:57.594Z,8.60
2018-11-06T18:03:57.663Z,8.80
2018-11-06T18:04:57.555Z,9.30
2018-11-06T18:05:57.538Z,8.60
2018-11-06T18:06:57.549Z,8.90
2018-11-06T18:07:57.412Z,8.50
2018-11-06T18:08:57.337Z,9.20
2018-11-06T18:09:57.319Z,9.10
2018-11-06T18:10:57.301Z,9.20
2018-11-06T18:11:57.371Z,9.10
2018-11-06T18:12:57.259Z,9.20
2018-11-06T18:13:57.239Z,9.20
2018-11-06T18:14:57.222Z,8.90
2018-11-06T18:15:57.203Z,8.50
2018-11-06T18:16:57.186Z,8.40
2018-11-06T18:17:57.253Z,8.90
2018-11-06T18:18:57.151Z,9.00
2018-11-06T18:19:57.122Z,8.90
2018-11-06T18:20:57.104Z,9.00
2018-11-06T18:21:57.084Z,8.60
2018-11-06T18:22:57.070Z,8.90
2018-11-06T18:23:57.044Z,8.60
2018-11-06T18:24:57.050Z,8.90
2018-11-06T18:25:57.075Z,8.50
2018-11-06T18:26:56.986Z,8.70
2018-11-06T18:27:56.966Z,8.50
2018-11-06T18:28:56.947Z,8.70
2018-11-06T18:29:56.927Z,8.50
2018-11-06T18:30:56.906Z,8.40
2018-11-06T18:31:56.893Z,8.50
2018-11-06T18:32:56.871Z,8.60
2018-11-06T18:33:56.858Z,8.40
2018-11-06T18:34:56.832Z,8.40
2018-11-06T18:35:56.810Z,8.60
2018-11-06T18:36:56.792Z,8.20
2018-11-06T18:37:56.771Z,8.90
2018-11-06T18:38:56.752Z,8.00
2018-11-06T18:39:56.735Z,8.20
2018-11-06T18:40:56.712Z,8.10
2018-11-06T18:41:56.696Z,8.20
2018-11-06T18:42:56.705Z,8.50
2018-11-06T18:43:56.667Z,9.00
2018-11-06T18:44:56.635Z,8.60
2018-11-06T18:45:56.619Z,8.40
2018-11-06T18:46:56.604Z,8.50
2018-11-06T18:47:56.581Z,8.70
2018-11-06T18:48:56.655Z,8.60
2018-11-06T18:49:56.536Z,8.50
2018-11-06T18:50:56.709Z,7.90
2018-11-06T18:51:56.497Z,8.10
2018-11-06T18:52:56.683Z,8.30
2018-11-06T18:53:56.465Z,8.00
2018-11-06T18:54:56.723Z,8.50
2018-11-06T18:55:56.421Z,8.10
2018-11-06T18:56:56.704Z,8.30
2018-11-06T18:57:56.488Z,8.30
2018-11-06T18:58:56.643Z,7.70
2018-11-06T18:59:56.342Z,8.30
2018-11-06T19:00:56.569Z,8.60
2018-11-06T19:01:56.301Z,8.00
2018-11-06T19:02:56.284Z,7.70
2018-11-06T19:03:56.267Z,8.40
2018-11-06T19:04:56.248Z,8.50
2018-11-06T19:05:56.226Z,8.20
2018-11-06T19:06:56.203Z,8.10
2018-11-06T19:07:56.188Z,8.20
2018-11-06T19:08:56.168Z,7.90
2018-11-06T19:09:56.146Z,8.20
2018-11-06T19:10:56.137Z,8.50
2018-11-06T19:11:56.107Z,7.70
2018-11-06T19:12:56.089Z,7.90
2018-11-06T19:13:56.067Z,8.90
2018-11-06T19:14:56.048Z,7.80
2018-11-06T19:15:56.029Z,8.00
2018-11-06T19:16:56.137Z,8.10
2018-11-06T19:17:55.988Z,8.40
2018-11-06T19:18:55.968Z,8.20
2018-11-06T19:19:55.952Z,8.10
2018-11-06T19:20:55.929Z,8.20
2018-11-06T19:21:55.913Z,8.00
2018-11-06T19:22:55.892Z,8.30
2018-11-06T19:23:55.880Z,8.00
2018-11-06T19:24:55.855Z,8.30
2018-11-06T19:25:55.832Z,8.00
2018-11-06T19:26:55.813Z,8.40
2018-11-06T19:27:55.795Z,8.20
2018-11-06T19:28:55.776Z,8.00
2018-11-06T19:29:55.753Z,7.70
2018-11-06T19:30:55.734Z,7.70
2018-11-06T19:31:55.714Z,8.20
2018-11-06T19:32:55.699Z,8.50
2018-11-06T19:33:55.675Z,7.90
2018-11-06T19:34:55.660Z,8.10
2018-11-06T19:35:55.637Z,7.90
2018-11-06T19:36:55.618Z,8.30
2018-11-06T19:37:55.599Z,7.90
2018-11-06T19:38:55.579Z,8.00
2018-11-06T19:39:55.560Z,8.10
2018-11-06T19:40:55.541Z,8.00
2018-11-06T19:41:55.521Z,8.30
2018-11-06T19:42:55.502Z,8.40
2018-11-06T19:43:55.481Z,7.80
2018-11-06T19:44:55.463Z,8.10
2018-11-06T19:45:55.440Z,7.70
2018-11-06T19:46:55.420Z,7.90
2018-11-06T19:47:55.404Z,7.90
2018-11-06T19:48:55.387Z,7.90
2018-11-06T19:49:55.373Z,8.10
2018-11-06T19:50:55.343Z,8.20
2018-11-06T19:51:55.328Z,7.80
2018-11-06T19:52:55.347Z,8.10
2018-11-06T19:53:55.299Z,8.00
2018-11-06T19:54:55.267Z,8.00
2018-11-06T19:55:55.248Z,7.70
2018-11-06T19:56:55.327Z,8.40
2018-11-06T19:57:55.209Z,8.50
2018-11-06T19:58:55.185Z,8.00
2018-11-06T19:59:55.167Z,8.30
2018-11-06T20:00:55.179Z,7.90
2018-11-06T20:01:55.132Z,8.40
2018-11-06T20:02:55.165Z,7.90
2018-11-06T20:03:55.088Z,8.10
2018-11-06T20:04:55.068Z,7.90
2018-11-06T20:05:55.144Z,8.10
2018-11-06T20:06:55.031Z,8.20
2018-11-06T20:07:55.010Z,7.90
2018-11-06T20:08:54.995Z,7.60
2018-11-06T20:09:54.976Z,7.60
2018-11-06T20:10:54.951Z,8.30
2018-11-06T20:11:55.076Z,8.20
2018-11-06T20:12:54.913Z,8.00
2018-11-06T20:13:54.889Z,7.90
2018-11-06T20:14:54.870Z,7.70
2018-11-06T20:15:54.922Z,7.80
2018-11-06T20:16:54.831Z,8.40
2018-11-06T20:17:54.885Z,8.10
2018-11-06T20:18:54.795Z,7.50
2018-11-06T20:19:54.775Z,8.00
2018-11-06T20:20:54.757Z,7.80
2018-11-06T20:21:54.737Z,7.30
2018-11-06T20:22:54.725Z,8.20
2018-11-06T20:23:54.739Z,7.80
2018-11-06T20:24:54.676Z,8.60
2018-11-06T20:25:54.656Z,7.80
2018-11-06T20:26:54.635Z,8.10
2018-11-06T20:27:54.617Z,7.90
2018-11-06T20:28:54.596Z,8.10
2018-11-06T20:30:03.524Z,7.90
2018-11-06T20:31:02.197Z,8.00
2018-11-06T20:31:54.537Z,7.50
2018-11-06T20:32:54.517Z,7.90
2018-11-06T20:33:54.629Z,7.80
2018-11-06T20:34:54.484Z,7.70
2018-11-06T20:35:54.459Z,7.70
2018-11-06T20:36:54.439Z,8.10
2018-11-06T20:37:54.504Z,7.10
2018-11-06T20:38:54.401Z,7.70
2018-11-06T20:39:54.379Z,8.10
2018-11-06T20:40:54.359Z,8.00
2018-11-06T20:41:54.344Z,7.40
2018-11-06T20:42:54.397Z,8.10
2018-11-06T20:43:54.303Z,7.60
2018-11-06T20:44:54.283Z,7.70
2018-11-06T20:45:54.259Z,8.00
2018-11-06T20:46:54.240Z,7.40
2018-11-06T20:47:54.222Z,7.90
2018-11-06T20:48:54.217Z,7.50
2018-11-06T20:49:54.260Z,7.70
2018-11-06T20:50:54.162Z,7.90
2018-11-06T20:51:54.161Z,7.40
2018-11-06T20:52:54.136Z,7.90
2018-11-06T20:53:54.104Z,8.20
2018-11-06T20:54:54.086Z,8.00
2018-11-06T20:55:54.094Z,8.20
2018-11-06T20:56:54.046Z,7.30
2018-11-06T20:57:54.024Z,8.20
2018-11-06T20:58:54.003Z,8.10
2018-11-06T20:59:54.043Z,7.60
2018-11-06T21:00:53.964Z,8.00
2018-11-06T21:01:53.943Z,7.70
2018-11-06T21:02:53.924Z,8.10
2018-11-06T21:03:53.908Z,8.00
2018-11-06T21:04:53.890Z,7.90
2018-11-06T21:05:53.899Z,7.60
2018-11-06T21:06:53.863Z,8.10
2018-11-06T21:07:53.824Z,7.50
2018-11-06T21:08:53.804Z,7.80
2018-11-06T21:09:53.786Z,7.70
2018-11-06T21:10:53.850Z,8.20
2018-11-06T21:11:53.921Z,8.00
2018-11-06T21:12:53.728Z,7.30
2018-11-06T21:13:53.707Z,8.00
2018-11-06T21:14:53.683Z,7.40
2018-11-06T21:15:53.667Z,8.00
2018-11-06T21:16:53.645Z,8.00
2018-11-06T21:17:53.717Z,8.30
2018-11-06T21:18:53.606Z,7.50
2018-11-06T21:19:53.693Z,7.90
2018-11-06T21:20:53.566Z,8.20
2018-11-06T21:21:53.544Z,7.40
2018-11-06T21:22:53.526Z,8.30
2018-11-06T21:23:53.506Z,7.80
2018-11-06T21:24:53.560Z,7.80
2018-11-06T21:25:53.650Z,8.10
2018-11-06T21:26:53.508Z,7.50
2018-11-06T21:27:53.428Z,7.80
2018-11-06T21:28:53.412Z,8.10
2018-11-06T21:29:53.385Z,7.90
2018-11-06T21:30:53.360Z,7.80
2018-11-06T21:31:53.350Z,7.90
2018-11-06T21:32:53.327Z,8.10
2018-11-06T21:33:53.358Z,7.80
2018-11-06T21:34:53.288Z,7.40
2018-11-06T21:35:53.270Z,7.50
2018-11-06T21:36:53.249Z,8.40
2018-11-06T21:37:53.226Z,7.80
2018-11-06T21:38:53.220Z,7.90
2018-11-06T21:39:53.187Z,7.90
2018-11-06T21:40:53.169Z,7.60
2018-11-06T21:41:53.167Z,7.80
2018-11-06T21:42:53.133Z,8.20
2018-11-06T21:43:53.112Z,7.80
2018-11-06T21:44:53.091Z,7.90
2018-11-06T21:45:53.067Z,8.40
2018-11-06T21:46:53.048Z,7.70
2018-11-06T21:47:53.027Z,7.50
2018-11-06T21:48:53.007Z,7.90
2018-11-06T21:49:52.985Z,8.40
2018-11-06T21:50:52.966Z,7.90
2018-11-06T21:51:52.948Z,7.90
2018-11-06T21:52:52.927Z,7.50
2018-11-06T21:53:52.916Z,7.90
2018-11-06T21:54:52.890Z,8.00
2018-11-06T21:55:52.865Z,7.90
2018-11-06T21:56:52.845Z,7.70
2018-11-06T21:57:52.828Z,8.20
2018-11-06T21:58:52.812Z,7.50
2018-11-06T21:59:52.787Z,7.80
2018-11-06T22:00:52.848Z,7.80
2018-11-06T22:01:52.754Z,8.20
2018-11-06T22:02:52.727Z,7.40
2018-11-06T22:03:52.709Z,8.10
2018-11-06T22:04:52.687Z,7.90
2018-11-06T22:05:52.664Z,7.40
2018-11-06T22:06:52.644Z,7.80
2018-11-06T22:07:52.626Z,8.10
2018-11-06T22:08:52.604Z,8.00
2018-11-06T22:09:52.604Z,7.60
2018-11-06T22:10:52.568Z,7.90
2018-11-06T22:11:52.591Z,7.60
2018-11-06T22:12:52.549Z,7.80
2018-11-06T22:13:52.506Z,7.70
2018-11-06T22:14:52.485Z,7.80
2018-11-06T22:15:52.465Z,8.10
2018-11-06T22:16:52.447Z,7.40
2018-11-06T22:17:52.429Z,7.70
2018-11-06T22:18:52.406Z,7.80
2018-11-06T22:19:52.387Z,7.30
2018-11-06T22:20:52.363Z,7.50
2018-11-06T22:21:52.346Z,7.80
2018-11-06T22:22:52.340Z,7.50
2018-11-06T22:23:52.304Z,8.00
2018-11-06T22:24:52.285Z,7.90
2018-11-06T22:25:52.265Z,7.60
2018-11-06T22:26:52.245Z,7.80
2018-11-06T22:27:52.246Z,7.80
2018-11-06T22:28:52.203Z,7.60
2018-11-06T22:29:52.188Z,8.50
2018-11-06T22:30:52.164Z,7.30
2018-11-06T22:31:52.337Z,7.50
2018-11-06T22:32:52.149Z,8.00
2018-11-06T22:33:52.110Z,8.20
2018-11-06T22:34:52.083Z,7.40
2018-11-06T22:35:52.073Z,8.00
2018-11-06T22:36:52.080Z,7.90
2018-11-06T22:37:52.065Z,7.90
2018-11-06T22:38:52.001Z,7.90
2018-11-06T22:39:51.984Z,7.70
2018-11-06T22:40:51.967Z,7.90
2018-11-06T22:41:51.942Z,7.90
2018-11-06T22:42:51.922Z,7.90
2018-11-06T22:43:51.902Z,7.50
2018-11-06T22:44:51.882Z,8.10
2018-11-06T22:45:51.861Z,7.90
2018-11-06T22:46:51.840Z,7.30
2018-11-06T22:47:51.823Z,8.30
2018-11-06T22:48:51.808Z,7.70
2018-11-06T22:49:51.788Z,7.40
2018-11-06T22:50:51.766Z,7.90
2018-11-06T22:51:51.741Z,7.40
2018-11-06T22:52:51.724Z,7.70
2018-11-06T22:53:51.703Z,7.40
2018-11-06T22:54:51.682Z,8.00
2018-11-06T22:55:51.658Z,8.10
2018-11-06T22:56:51.662Z,8.10
2018-11-06T22:57:51.619Z,7.70
2018-11-06T22:58:51.602Z,7.90
2018-11-06T22:59:51.648Z,7.70
2018-11-06T23:00:51.560Z,7.60
2018-11-06T23:01:51.539Z,8.10
2018-11-06T23:02:51.522Z,7.90
2018-11-06T23:03:51.501Z,7.60
2018-11-06T23:04:51.479Z,8.40
2018-11-06T23:05:51.545Z,7.90
2018-11-06T23:06:51.628Z,7.70
2018-11-06T23:07:51.422Z,7.90
2018-11-06T23:08:51.397Z,7.30
2018-11-06T23:09:51.375Z,8.00
2018-11-06T23:10:51.358Z,7.90
2018-11-06T23:11:51.344Z,7.90
2018-11-06T23:12:51.322Z,8.10
2018-11-06T23:13:51.295Z,7.60
2018-11-06T23:14:51.275Z,8.30
2018-11-06T23:15:51.259Z,7.90
2018-11-06T23:16:51.242Z,7.90
2018-11-06T23:17:51.216Z,7.80
2018-11-06T23:18:51.194Z,8.00
2018-11-06T23:19:51.177Z,7.60
2018-11-06T23:20:51.159Z,7.70
2018-11-06T23:21:51.134Z,7.40
2018-11-06T23:22:51.156Z,7.90
2018-11-06T23:23:51.093Z,8.00
2018-11-06T23:24:51.178Z,8.00
2018-11-06T23:25:51.058Z,7.60
2018-11-06T23:26:51.034Z,7.80
2018-11-06T23:27:51.013Z,7.80
2018-11-06T23:28:50.994Z,7.40
2018-11-06T23:29:50.972Z,7.90
2018-11-06T23:30:50.957Z,8.20
2018-11-06T23:31:50.931Z,8.10
2018-11-06T23:32:50.913Z,8.00
2018-11-06T23:33:50.892Z,7.80
2018-11-06T23:34:50.872Z,7.90
2018-11-06T23:35:50.920Z,8.00
2018-11-06T23:36:50.833Z,8.00
2018-11-06T23:37:50.811Z,7.90
2018-11-06T23:38:50.791Z,8.20
2018-11-06T23:39:50.776Z,7.90
2018-11-06T23:40:50.757Z,7.90
2018-11-06T23:41:50.729Z,7.90
2018-11-06T23:42:50.719Z,7.80
2018-11-06T23:43:50.691Z,8.00
2018-11-06T23:44:50.676Z,8.00
2018-11-06T23:45:50.648Z,7.50
2018-11-06T23:46:50.631Z,7.40
2018-11-06T23:47:50.609Z,8.00
2018-11-06T23:48:50.592Z,7.60
2018-11-06T23:49:50.570Z,7.70
2018-11-06T23:50:50.552Z,7.50
2018-11-06T23:51:50.530Z,8.30
2018-11-06T23:52:50.509Z,7.70
2018-11-06T23:53:50.492Z,8.00
2018-11-06T23:54:50.472Z,7.50
2018-11-06T23:55:50.452Z,7.80
2018-11-06T23:56:50.428Z,8.30
2018-11-06T23:57:50.407Z,8.00
2018-11-06T23:58:50.388Z,7.60
2018-11-06T23:59:50.371Z,7.80
